KSME/SME METAR and TAF weather

Enter ICAO airport designator
Station Type Date Time Source
KSME METAR 2021/09/25 12:54 UTC NOAA

KSME 251254Z AUTO 00000KT 10SM CLR 12/06 A3014 RMK AO2


Station Type Date Time Source
KSME Decoded METAR 2021/09/25 12:54 UTC NOAA

Somerset, Somerset-Pulaski County - J.T. Wilson Field Airport, KY, United States (KSME) 37-03-15N 084-36-54W
Sep 25, 2021 - 08:54 AM EDT / 2021.09.25 1254 UTC
Wind: Calm:0
Visibility: 10 mile(s):0
Sky conditions: clear
Temperature: 53 F (12 C)
Dew Point: 42 F (6 C)
Relative Humidity: 66%
Pressure (altimeter): 30.14 in. Hg (1020 hPa)
ob: KSME 251254Z AUTO 00000KT 10SM CLR 12/06 A3014 RMK AO2
cycle: 13

Station Type Date Time Source
KSME TAF 2021/09/25 12:39 UTC NOAA

TAF KSME 251134Z 2512/2612 VRB03KT P6SM SCT200
FM251800 25006KT P6SM SCT045 BKN080
FM260700 VRB03KT 2SM BR FEW250

Example: see airport list